sensor_id;sensor_type;location;lat;lon;timestamp;pressure;altitude;pressure_sealevel;temperature;humidity
6224;BME280;3145;42.726;23.342;2023-02-19T00:00:59;95664.97;;;5.93;nan
6224;BME280;3145;42.726;23.342;2023-02-19T00:03:28;95663.16;;;5.84;nan
6224;BME280;3145;42.726;23.342;2023-02-19T00:05:55;95663.59;;;5.89;nan
6224;BME280;3145;42.726;23.342;2023-02-19T00:08:22;95644.25;;;5.80;nan
6224;BME280;3145;42.726;23.342;2023-02-19T00:10:50;95653.91;;;5.89;nan
6224;BME280;3145;42.726;23.342;2023-02-19T00:13:17;95624.69;;;5.75;nan
6224;BME280;3145;42.726;23.342;2023-02-19T00:15:45;95645.38;;;5.87;nan
6224;BME280;3145;42.726;23.342;2023-02-19T00:18:12;95624.97;;;5.72;nan
6224;BME280;3145;42.726;23.342;2023-02-19T00:20:38;95645.13;;;5.81;nan
6224;BME280;3145;42.726;23.342;2023-02-19T00:23:05;95623.91;;;5.65;nan
6224;BME280;3145;42.726;23.342;2023-02-19T00:25:35;95601.03;;;5.48;nan
6224;BME280;3145;42.726;23.342;2023-02-19T00:28:04;95633.69;;;5.63;nan
6224;BME280;3145;42.726;23.342;2023-02-19T00:30:31;95626.09;;;5.60;nan
6224;BME280;3145;42.726;23.342;2023-02-19T00:32:58;95636.88;;;5.57;nan
6224;BME280;3145;42.726;23.342;2023-02-19T00:35:25;95638.97;;;5.44;nan
6224;BME280;3145;42.726;23.342;2023-02-19T00:37:51;95646.81;;;5.44;nan
6224;BME280;3145;42.726;23.342;2023-02-19T00:40:18;95638.28;;;5.42;nan
6224;BME280;3145;42.726;23.342;2023-02-19T00:42:45;95630.84;;;5.28;nan
6224;BME280;3145;42.726;23.342;2023-02-19T00:45:13;95629.22;;;5.27;nan
6224;BME280;3145;42.726;23.342;2023-02-19T00:47:39;95613.78;;;5.14;nan
6224;BME280;3145;42.726;23.342;2023-02-19T00:50:06;95593.81;;;5.03;nan
6224;BME280;3145;42.726;23.342;2023-02-19T00:52:33;95612.38;;;5.20;nan
6224;BME280;3145;42.726;23.342;2023-02-19T00:55:00;95613.75;;;5.24;nan
6224;BME280;3145;42.726;23.342;2023-02-19T00:57:26;95602.63;;;5.22;nan
6224;BME280;3145;42.726;23.342;2023-02-19T00:59:53;95604.25;;;5.23;nan
6224;BME280;3145;42.726;23.342;2023-02-19T01:02:21;95607.16;;;5.00;nan
6224;BME280;3145;42.726;23.342;2023-02-19T01:04:48;95592.75;;;4.87;nan
6224;BME280;3145;42.726;23.342;2023-02-19T01:07:14;95634.44;;;4.98;nan
6224;BME280;3145;42.726;23.342;2023-02-19T01:09:41;95625.09;;;4.95;nan
6224;BME280;3145;42.726;23.342;2023-02-19T01:12:08;95621.81;;;4.93;nan
6224;BME280;3145;42.726;23.342;2023-02-19T01:14:35;95611.06;;;4.77;nan
6224;BME280;3145;42.726;23.342;2023-02-19T01:17:02;95513.53;;;4.18;nan
6224;BME280;3145;42.726;23.342;2023-02-19T01:19:30;95611.59;;;4.81;nan
6224;BME280;3145;42.726;23.342;2023-02-19T01:21:57;95604.44;;;4.73;nan
6224;BME280;3145;42.726;23.342;2023-02-19T01:24:24;95601.97;;;4.72;nan
6224;BME280;3145;42.726;23.342;2023-02-19T01:26:50;95590.25;;;4.66;nan
6224;BME280;3145;42.726;23.342;2023-02-19T01:29:17;95607.72;;;4.75;nan
6224;BME280;3145;42.726;23.342;2023-02-19T01:31:44;95602.75;;;4.72;nan
6224;BME280;3145;42.726;23.342;2023-02-19T01:34:10;95604.97;;;4.67;nan
6224;BME280;3145;42.726;23.342;2023-02-19T01:36:39;95611.72;;;4.70;nan
6224;BME280;3145;42.726;23.342;2023-02-19T01:39:06;95628.53;;;4.67;nan
6224;BME280;3145;42.726;23.342;2023-02-19T01:41:35;95638.03;;;4.68;nan
6224;BME280;3145;42.726;23.342;2023-02-19T01:44:05;95642.16;;;4.61;nan
6224;BME280;3145;42.726;23.342;2023-02-19T01:46:33;95644.22;;;4.67;nan
6224;BME280;3145;42.726;23.342;2023-02-19T01:49:03;95644.63;;;4.72;nan
6224;BME280;3145;42.726;23.342;2023-02-19T01:51:32;95625.75;;;4.59;nan
6224;BME280;3145;42.726;23.342;2023-02-19T01:54:04;95599.56;;;4.40;nan
6224;BME280;3145;42.726;23.342;2023-02-19T01:56:32;95645.22;;;4.76;nan
6224;BME280;3145;42.726;23.342;2023-02-19T01:59:00;95609.94;;;4.61;nan
6224;BME280;3145;42.726;23.342;2023-02-19T02:01:27;95589.56;;;4.45;nan
6224;BME280;3145;42.726;23.342;2023-02-19T02:03:54;95646.16;;;4.94;nan
6224;BME280;3145;42.726;23.342;2023-02-19T02:06:23;95430.81;;;3.70;nan
6224;BME280;3145;42.726;23.342;2023-02-19T02:08:54;95590.91;;;4.68;nan
6224;BME280;3145;42.726;23.342;2023-02-19T02:11:44;95619.31;;;5.02;nan
6224;BME280;3145;42.726;23.342;2023-02-19T02:14:12;95582.66;;;4.73;nan
6224;BME280;3145;42.726;23.342;2023-02-19T02:16:51;95651.53;;;5.12;nan
6224;BME280;3145;42.726;23.342;2023-02-19T02:19:34;95651.13;;;5.26;nan
6224;BME280;3145;42.726;23.342;2023-02-19T02:22:10;95647.94;;;5.32;nan
6224;BME280;3145;42.726;23.342;2023-02-19T02:25:11;95642.16;;;5.38;nan
6224;BME280;3145;42.726;23.342;2023-02-19T02:27:50;95605.91;;;5.14;nan
6224;BME280;3145;42.726;23.342;2023-02-19T02:30:34;95634.28;;;5.38;nan
6224;BME280;3145;42.726;23.342;2023-02-19T02:33:08;95639.81;;;5.35;nan
6224;BME280;3145;42.726;23.342;2023-02-19T02:35:41;95596.81;;;5.08;nan
6224;BME280;3145;42.726;23.342;2023-02-19T02:38:11;95641.91;;;5.31;nan
6224;BME280;3145;42.726;23.342;2023-02-19T02:40:42;95634.03;;;5.41;nan
6224;BME280;3145;42.726;23.342;2023-02-19T02:43:09;95631.69;;;5.38;nan
6224;BME280;3145;42.726;23.342;2023-02-19T02:45:37;95637.91;;;5.37;nan
6224;BME280;3145;42.726;23.342;2023-02-19T02:48:32;95643.69;;;5.31;nan
6224;BME280;3145;42.726;23.342;2023-02-19T02:51:05;95654.44;;;5.28;nan
6224;BME280;3145;42.726;23.342;2023-02-19T02:53:38;95645.50;;;5.21;nan
6224;BME280;3145;42.726;23.342;2023-02-19T02:56:24;95628.94;;;5.20;nan
6224;BME280;3145;42.726;23.342;2023-02-19T02:58:52;95622.88;;;5.20;nan
6224;BME280;3145;42.726;23.342;2023-02-19T03:01:24;95646.44;;;5.29;nan
6224;BME280;3145;42.726;23.342;2023-02-19T03:04:13;95639.00;;;5.25;nan
6224;BME280;3145;42.726;23.342;2023-02-19T03:06:41;95580.47;;;4.87;nan
6224;BME280;3145;42.726;23.342;2023-02-19T03:09:12;95634.19;;;5.20;nan
6224;BME280;3145;42.726;23.342;2023-02-19T03:11:44;95643.69;;;5.21;nan
6224;BME280;3145;42.726;23.342;2023-02-19T03:14:33;95655.41;;;5.27;nan
6224;BME280;3145;42.726;23.342;2023-02-19T03:17:25;95665.88;;;5.27;nan
6224;BME280;3145;42.726;23.342;2023-02-19T03:20:20;95665.19;;;5.15;nan
6224;BME280;3145;42.726;23.342;2023-02-19T03:22:51;95666.44;;;5.02;nan
6224;BME280;3145;42.726;23.342;2023-02-19T03:25:20;95669.06;;;5.02;nan
6224;BME280;3145;42.726;23.342;2023-02-19T03:28:08;95665.06;;;4.88;nan
6224;BME280;3145;42.726;23.342;2023-02-19T03:30:39;95681.56;;;4.88;nan
6224;BME280;3145;42.726;23.342;2023-02-19T03:33:13;95677.31;;;4.87;nan
6224;BME280;3145;42.726;23.342;2023-02-19T03:35:43;95649.19;;;4.70;nan
6224;BME280;3145;42.726;23.342;2023-02-19T03:38:14;95687.91;;;4.86;nan
6224;BME280;3145;42.726;23.342;2023-02-19T03:40:50;95693.41;;;4.92;nan
6224;BME280;3145;42.726;23.342;2023-02-19T03:43:19;95641.31;;;4.51;nan
6224;BME280;3145;42.726;23.342;2023-02-19T03:45:55;95697.53;;;4.66;nan
6224;BME280;3145;42.726;23.342;2023-02-19T03:48:30;95703.31;;;4.79;nan
6224;BME280;3145;42.726;23.342;2023-02-19T03:51:06;95698.34;;;4.76;nan
6224;BME280;3145;42.726;23.342;2023-02-19T03:53:45;95686.22;;;4.66;nan
6224;BME280;3145;42.726;23.342;2023-02-19T03:56:17;95699.59;;;4.72;nan
6224;BME280;3145;42.726;23.342;2023-02-19T03:58:51;95707.19;;;4.75;nan
6224;BME280;3145;42.726;23.342;2023-02-19T04:01:27;95702.91;;;4.74;nan
6224;BME280;3145;42.726;23.342;2023-02-19T04:03:58;95701.94;;;4.75;nan
6224;BME280;3145;42.726;23.342;2023-02-19T04:06:28;95704.97;;;4.80;nan
6224;BME280;3145;42.726;23.342;2023-02-19T04:08:58;95703.44;;;4.78;nan
6224;BME280;3145;42.726;23.342;2023-02-19T04:11:26;95708.56;;;4.79;nan
6224;BME280;3145;42.726;23.342;2023-02-19T04:13:57;95704.56;;;4.75;nan
6224;BME280;3145;42.726;23.342;2023-02-19T04:16:27;95677.25;;;4.49;nan
6224;BME280;3145;42.726;23.342;2023-02-19T04:19:00;95721.78;;;4.78;nan
6224;BME280;3145;42.726;23.342;2023-02-19T04:21:29;95718.06;;;4.80;nan
6224;BME280;3145;42.726;23.342;2023-02-19T04:23:58;95715.31;;;4.82;nan
6224;BME280;3145;42.726;23.342;2023-02-19T04:26:28;95671.06;;;4.50;nan
6224;BME280;3145;42.726;23.342;2023-02-19T04:28:56;95707.72;;;4.69;nan
6224;BME280;3145;42.726;23.342;2023-02-19T04:31:23;95714.88;;;4.67;nan
6224;BME280;3145;42.726;23.342;2023-02-19T04:33:51;95708.50;;;4.60;nan
6224;BME280;3145;42.726;23.342;2023-02-19T04:36:19;95714.03;;;4.57;nan
6224;BME280;3145;42.726;23.342;2023-02-19T04:38:45;95712.31;;;4.47;nan
6224;BME280;3145;42.726;23.342;2023-02-19T04:41:12;95717.81;;;4.34;nan
6224;BME280;3145;42.726;23.342;2023-02-19T04:43:39;95696.63;;;4.37;nan
6224;BME280;3145;42.726;23.342;2023-02-19T04:46:05;95709.97;;;4.34;nan
6224;BME280;3145;42.726;23.342;2023-02-19T04:48:32;95726.94;;;4.49;nan
6224;BME280;3145;42.726;23.342;2023-02-19T04:50:59;95719.81;;;4.61;nan
6224;BME280;3145;42.726;23.342;2023-02-19T04:53:27;95705.44;;;4.46;nan
6224;BME280;3145;42.726;23.342;2023-02-19T04:55:53;95718.13;;;4.50;nan
6224;BME280;3145;42.726;23.342;2023-02-19T04:58:20;95733.56;;;4.53;nan
6224;BME280;3145;42.726;23.342;2023-02-19T05:00:51;95731.75;;;4.54;nan
6224;BME280;3145;42.726;23.342;2023-02-19T05:03:18;95730.00;;;4.54;nan
6224;BME280;3145;42.726;23.342;2023-02-19T05:05:44;95732.19;;;4.49;nan
6224;BME280;3145;42.726;23.342;2023-02-19T05:08:11;95682.78;;;4.16;nan
6224;BME280;3145;42.726;23.342;2023-02-19T05:10:39;95734.75;;;4.40;nan
6224;BME280;3145;42.726;23.342;2023-02-19T05:13:06;95728.00;;;4.37;nan
6224;BME280;3145;42.726;23.342;2023-02-19T05:15:33;95735.16;;;4.35;nan
6224;BME280;3145;42.726;23.342;2023-02-19T05:17:59;95727.97;;;4.28;nan
6224;BME280;3145;42.726;23.342;2023-02-19T05:20:26;95732.63;;;4.24;nan
6224;BME280;3145;42.726;23.342;2023-02-19T05:22:53;95723.19;;;4.12;nan
6224;BME280;3145;42.726;23.342;2023-02-19T05:25:19;95735.09;;;4.26;nan
6224;BME280;3145;42.726;23.342;2023-02-19T05:27:47;95738.72;;;4.34;nan
6224;BME280;3145;42.726;23.342;2023-02-19T05:30:15;95743.16;;;4.43;nan
6224;BME280;3145;42.726;23.342;2023-02-19T05:32:41;95747.06;;;4.58;nan
6224;BME280;3145;42.726;23.342;2023-02-19T05:35:08;95745.44;;;4.76;nan
6224;BME280;3145;42.726;23.342;2023-02-19T05:37:34;95753.91;;;4.89;nan
6224;BME280;3145;42.726;23.342;2023-02-19T05:40:01;95756.13;;;5.03;nan
6224;BME280;3145;42.726;23.342;2023-02-19T05:42:28;95764.13;;;5.12;nan
6224;BME280;3145;42.726;23.342;2023-02-19T05:44:56;95762.78;;;5.27;nan
6224;BME280;3145;42.726;23.342;2023-02-19T05:47:23;95767.06;;;5.47;nan
6224;BME280;3145;42.726;23.342;2023-02-19T05:49:49;95760.44;;;5.71;nan
6224;BME280;3145;42.726;23.342;2023-02-19T05:52:16;95766.09;;;6.05;nan
6224;BME280;3145;42.726;23.342;2023-02-19T05:54:43;95732.13;;;6.03;nan
6224;BME280;3145;42.726;23.342;2023-02-19T05:57:09;95773.00;;;6.52;nan
6224;BME280;3145;42.726;23.342;2023-02-19T05:59:36;95774.28;;;6.75;nan
6224;BME280;3145;42.726;23.342;2023-02-19T06:02:04;95740.31;;;6.91;nan
6224;BME280;3145;42.726;23.342;2023-02-19T06:04:31;95781.09;;;7.39;nan
6224;BME280;3145;42.726;23.342;2023-02-19T06:06:57;95773.00;;;7.68;nan
6224;BME280;3145;42.726;23.342;2023-02-19T06:09:24;95781.16;;;8.00;nan
6224;BME280;3145;42.726;23.342;2023-02-19T06:11:51;95786.41;;;8.35;nan
6224;BME280;3145;42.726;23.342;2023-02-19T06:14:17;95770.75;;;8.59;nan
6224;BME280;3145;42.726;23.342;2023-02-19T06:16:44;95794.28;;;8.94;nan
6224;BME280;3145;42.726;23.342;2023-02-19T06:19:12;95792.41;;;9.12;nan
6224;BME280;3145;42.726;23.342;2023-02-19T06:21:39;95784.00;;;9.08;nan
6224;BME280;3145;42.726;23.342;2023-02-19T06:24:06;95789.50;;;9.31;nan
6224;BME280;3145;42.726;23.342;2023-02-19T06:26:33;95801.75;;;9.56;nan
6224;BME280;3145;42.726;23.342;2023-02-19T06:29:00;95798.53;;;9.78;nan
6224;BME280;3145;42.726;23.342;2023-02-19T06:31:27;95798.69;;;9.93;nan
6224;BME280;3145;42.726;23.342;2023-02-19T06:33:54;95803.13;;;9.84;nan
6224;BME280;3145;42.726;23.342;2023-02-19T06:36:22;95797.84;;;9.92;nan
6224;BME280;3145;42.726;23.342;2023-02-19T06:38:50;95811.91;;;10.01;nan
6224;BME280;3145;42.726;23.342;2023-02-19T06:41:17;95800.06;;;10.13;nan
6224;BME280;3145;42.726;23.342;2023-02-19T06:43:44;95796.41;;;10.30;nan
6224;BME280;3145;42.726;23.342;2023-02-19T06:46:11;95781.38;;;10.46;nan
6224;BME280;3145;42.726;23.342;2023-02-19T06:48:39;95792.31;;;10.98;nan
6224;BME280;3145;42.726;23.342;2023-02-19T06:51:06;95805.50;;;11.44;nan
6224;BME280;3145;42.726;23.342;2023-02-19T06:53:34;95801.19;;;11.82;nan
6224;BME280;3145;42.726;23.342;2023-02-19T06:56:03;95802.31;;;12.18;nan
6224;BME280;3145;42.726;23.342;2023-02-19T06:58:31;95807.34;;;12.50;nan
6224;BME280;3145;42.726;23.342;2023-02-19T07:00:58;95816.97;;;12.80;nan
6224;BME280;3145;42.726;23.342;2023-02-19T07:03:25;95798.09;;;12.97;nan
6224;BME280;3145;42.726;23.342;2023-02-19T07:05:52;95803.88;;;13.15;nan
6224;BME280;3145;42.726;23.342;2023-02-19T07:08:19;95818.25;;;13.35;nan
6224;BME280;3145;42.726;23.342;2023-02-19T07:10:54;95819.53;;;13.75;nan
6224;BME280;3145;42.726;23.342;2023-02-19T07:13:22;95824.03;;;14.10;nan
6224;BME280;3145;42.726;23.342;2023-02-19T07:15:49;95818.81;;;14.59;nan
6224;BME280;3145;42.726;23.342;2023-02-19T07:18:15;95819.81;;;15.13;nan
6224;BME280;3145;42.726;23.342;2023-02-19T07:20:42;95763.00;;;15.27;nan
6224;BME280;3145;42.726;23.342;2023-02-19T07:23:09;95796.66;;;15.88;nan
6224;BME280;3145;42.726;23.342;2023-02-19T07:25:36;95758.75;;;15.92;nan
6224;BME280;3145;42.726;23.342;2023-02-19T07:28:05;95792.13;;;16.61;nan
6224;BME280;3145;42.726;23.342;2023-02-19T07:30:32;95776.31;;;16.86;nan
6224;BME280;3145;42.726;23.342;2023-02-19T07:32:59;95779.53;;;17.27;nan
6224;BME280;3145;42.726;23.342;2023-02-19T07:35:26;95782.38;;;17.51;nan
6224;BME280;3145;42.726;23.342;2023-02-19T07:37:53;95792.28;;;17.88;nan
6224;BME280;3145;42.726;23.342;2023-02-19T07:40:20;95691.81;;;17.68;nan
6224;BME280;3145;42.726;23.342;2023-02-19T07:42:46;95789.66;;;18.57;nan
6224;BME280;3145;42.726;23.342;2023-02-19T07:45:15;95784.06;;;18.90;nan
6224;BME280;3145;42.726;23.342;2023-02-19T07:47:42;95762.66;;;18.83;nan
6224;BME280;3145;42.726;23.342;2023-02-19T07:50:09;95776.88;;;19.08;nan
6224;BME280;3145;42.726;23.342;2023-02-19T07:52:36;95758.50;;;19.12;nan
6224;BME280;3145;42.726;23.342;2023-02-19T07:55:02;95780.50;;;19.38;nan
6224;BME280;3145;42.726;23.342;2023-02-19T07:57:29;95781.56;;;19.37;nan
6224;BME280;3145;42.726;23.342;2023-02-19T07:59:56;95789.16;;;19.58;nan
6224;BME280;3145;42.726;23.342;2023-02-19T08:02:24;95793.19;;;19.67;nan
6224;BME280;3145;42.726;23.342;2023-02-19T08:05:08;95790.34;;;19.62;nan
6224;BME280;3145;42.726;23.342;2023-02-19T08:07:36;95788.19;;;19.71;nan
6224;BME280;3145;42.726;23.342;2023-02-19T08:10:03;95783.94;;;19.81;nan
6224;BME280;3145;42.726;23.342;2023-02-19T08:12:54;95783.97;;;19.63;nan
6224;BME280;3145;42.726;23.342;2023-02-19T08:15:38;95782.16;;;19.57;nan
6224;BME280;3145;42.726;23.342;2023-02-19T08:18:06;95784.75;;;19.64;nan
6224;BME280;3145;42.726;23.342;2023-02-19T08:20:33;95790.94;;;19.82;nan
6224;BME280;3145;42.726;23.342;2023-02-19T08:22:59;95788.56;;;19.74;nan
6224;BME280;3145;42.726;23.342;2023-02-19T08:25:26;95786.84;;;19.80;nan
6224;BME280;3145;42.726;23.342;2023-02-19T08:27:53;95773.81;;;19.65;nan
6224;BME280;3145;42.726;23.342;2023-02-19T08:30:20;95777.38;;;19.77;nan
6224;BME280;3145;42.726;23.342;2023-02-19T08:32:47;95786.16;;;19.66;nan
6224;BME280;3145;42.726;23.342;2023-02-19T08:35:15;95766.75;;;19.71;nan
6224;BME280;3145;42.726;23.342;2023-02-19T08:37:42;95780.44;;;19.81;nan
6224;BME280;3145;42.726;23.342;2023-02-19T08:40:09;95785.41;;;20.13;nan
6224;BME280;3145;42.726;23.342;2023-02-19T08:42:36;95784.09;;;20.34;nan
6224;BME280;3145;42.726;23.342;2023-02-19T08:45:04;95781.91;;;20.42;nan
6224;BME280;3145;42.726;23.342;2023-02-19T08:47:33;95758.00;;;20.64;nan
6224;BME280;3145;42.726;23.342;2023-02-19T08:50:00;95759.91;;;20.75;nan
6224;BME280;3145;42.726;23.342;2023-02-19T08:52:30;95765.41;;;20.68;nan
6224;BME280;3145;42.726;23.342;2023-02-19T08:54:57;95752.34;;;20.42;nan
6224;BME280;3145;42.726;23.342;2023-02-19T08:57:24;95734.75;;;20.46;nan
6224;BME280;3145;42.726;23.342;2023-02-19T08:59:53;95729.28;;;19.64;nan
6224;BME280;3145;42.726;23.342;2023-02-19T09:02:20;95746.16;;;20.01;nan
6224;BME280;3145;42.726;23.342;2023-02-19T09:04:47;95749.34;;;20.09;nan
6224;BME280;3145;42.726;23.342;2023-02-19T09:07:14;95741.94;;;20.34;nan
6224;BME280;3145;42.726;23.342;2023-02-19T09:09:42;95720.84;;;20.49;nan
6224;BME280;3145;42.726;23.342;2023-02-19T09:12:11;95722.53;;;20.73;nan
6224;BME280;3145;42.726;23.342;2023-02-19T09:14:38;95694.28;;;20.82;nan
6224;BME280;3145;42.726;23.342;2023-02-19T09:17:06;95712.25;;;20.82;nan
6224;BME280;3145;42.726;23.342;2023-02-19T09:19:34;95712.06;;;20.95;nan
6224;BME280;3145;42.726;23.342;2023-02-19T09:22:02;95713.28;;;20.69;nan
6224;BME280;3145;42.726;23.342;2023-02-19T09:24:29;95718.84;;;20.97;nan
6224;BME280;3145;42.726;23.342;2023-02-19T09:26:57;95656.75;;;20.41;nan
6224;BME280;3145;42.726;23.342;2023-02-19T09:29:25;95725.81;;;20.87;nan
6224;BME280;3145;42.726;23.342;2023-02-19T09:31:55;95722.53;;;20.50;nan
6224;BME280;3145;42.726;23.342;2023-02-19T09:34:22;95712.84;;;20.72;nan
6224;BME280;3145;42.726;23.342;2023-02-19T09:36:50;95684.47;;;20.76;nan
6224;BME280;3145;42.726;23.342;2023-02-19T09:39:16;95704.69;;;20.90;nan
6224;BME280;3145;42.726;23.342;2023-02-19T09:41:45;95711.25;;;20.94;nan
6224;BME280;3145;42.726;23.342;2023-02-19T09:44:21;95722.47;;;20.91;nan
6224;BME280;3145;42.726;23.342;2023-02-19T09:46:51;95716.88;;;20.93;nan
6224;BME280;3145;42.726;23.342;2023-02-19T09:49:20;95713.34;;;21.15;nan
6224;BME280;3145;42.726;23.342;2023-02-19T09:51:52;95703.66;;;21.14;nan
6224;BME280;3145;42.726;23.342;2023-02-19T09:54:22;95707.09;;;20.57;nan
6224;BME280;3145;42.726;23.342;2023-02-19T09:56:50;95648.94;;;20.40;nan
6224;BME280;3145;42.726;23.342;2023-02-19T09:59:23;95681.19;;;20.74;nan
6224;BME280;3145;42.726;23.342;2023-02-19T10:01:56;95661.31;;;20.64;nan
6224;BME280;3145;42.726;23.342;2023-02-19T10:04:25;95683.19;;;20.90;nan
6224;BME280;3145;42.726;23.342;2023-02-19T10:06:52;95662.16;;;20.64;nan
6224;BME280;3145;42.726;23.342;2023-02-19T10:09:24;95662.63;;;21.07;nan
6224;BME280;3145;42.726;23.342;2023-02-19T10:11:54;95670.47;;;21.09;nan
6224;BME280;3145;42.726;23.342;2023-02-19T10:14:29;95661.69;;;20.90;nan
6224;BME280;3145;42.726;23.342;2023-02-19T10:17:02;95627.94;;;20.37;nan
6224;BME280;3145;42.726;23.342;2023-02-19T10:19:29;95651.75;;;20.56;nan
6224;BME280;3145;42.726;23.342;2023-02-19T10:21:57;95640.31;;;20.61;nan
6224;BME280;3145;42.726;23.342;2023-02-19T10:24:26;95619.06;;;20.25;nan
6224;BME280;3145;42.726;23.342;2023-02-19T10:26:54;95628.41;;;20.57;nan
6224;BME280;3145;42.726;23.342;2023-02-19T10:29:23;95562.22;;;20.39;nan
6224;BME280;3145;42.726;23.342;2023-02-19T10:32:13;95602.13;;;20.70;nan
6224;BME280;3145;42.726;23.342;2023-02-19T10:34:41;95588.25;;;20.50;nan
6224;BME280;3145;42.726;23.342;2023-02-19T10:37:11;95603.16;;;20.81;nan
6224;BME280;3145;42.726;23.342;2023-02-19T10:39:41;95604.00;;;20.47;nan
6224;BME280;3145;42.726;23.342;2023-02-19T10:42:20;95576.66;;;20.38;nan
6224;BME280;3145;42.726;23.342;2023-02-19T10:44:52;95589.28;;;20.72;nan
6224;BME280;3145;42.726;23.342;2023-02-19T10:47:22;95557.16;;;20.66;nan
6224;BME280;3145;42.726;23.342;2023-02-19T10:49:51;95570.47;;;20.72;nan
6224;BME280;3145;42.726;23.342;2023-02-19T10:52:21;95574.19;;;20.83;nan
6224;BME280;3145;42.726;23.342;2023-02-19T10:54:50;95565.00;;;20.67;nan
6224;BME280;3145;42.726;23.342;2023-02-19T10:57:29;95556.34;;;20.65;nan
6224;BME280;3145;42.726;23.342;2023-02-19T11:00:00;95538.63;;;20.41;nan
6224;BME280;3145;42.726;23.342;2023-02-19T11:02:29;95548.41;;;20.70;nan
6224;BME280;3145;42.726;23.342;2023-02-19T11:05:05;95542.41;;;20.80;nan
6224;BME280;3145;42.726;23.342;2023-02-19T11:07:33;95520.25;;;20.61;nan
6224;BME280;3145;42.726;23.342;2023-02-19T11:10:03;95530.66;;;20.46;nan
6224;BME280;3145;42.726;23.342;2023-02-19T11:12:31;95533.25;;;20.41;nan
6224;BME280;3145;42.726;23.342;2023-02-19T11:15:12;95520.44;;;20.20;nan
6224;BME280;3145;42.726;23.342;2023-02-19T11:17:53;95391.16;;;19.77;nan
6224;BME280;3145;42.726;23.342;2023-02-19T11:20:20;95503.38;;;20.26;nan
6224;BME280;3145;42.726;23.342;2023-02-19T11:22:47;95506.41;;;20.18;nan
6224;BME280;3145;42.726;23.342;2023-02-19T11:25:19;95485.97;;;19.94;nan
6224;BME280;3145;42.726;23.342;2023-02-19T11:27:57;95482.75;;;20.15;nan
6224;BME280;3145;42.726;23.342;2023-02-19T11:30:37;95499.41;;;20.17;nan
6224;BME280;3145;42.726;23.342;2023-02-19T11:33:34;95491.38;;;20.29;nan
6224;BME280;3145;42.726;23.342;2023-02-19T11:39:18;95435.38;;;20.09;nan
6224;BME280;3145;42.726;23.342;2023-02-19T11:41:58;95470.47;;;20.19;nan
6224;BME280;3145;42.726;23.342;2023-02-19T11:44:36;95445.72;;;20.17;nan
6224;BME280;3145;42.726;23.342;2023-02-19T11:47:35;95445.00;;;20.33;nan
6224;BME280;3145;42.726;23.342;2023-02-19T11:50:12;95464.91;;;20.60;nan
6224;BME280;3145;42.726;23.342;2023-02-19T11:52:43;95442.59;;;20.60;nan
6224;BME280;3145;42.726;23.342;2023-02-19T11:55:18;95462.91;;;20.67;nan
6224;BME280;3145;42.726;23.342;2023-02-19T11:57:55;95460.47;;;20.66;nan
6224;BME280;3145;42.726;23.342;2023-02-19T12:00:28;95444.91;;;20.68;nan
6224;BME280;3145;42.726;23.342;2023-02-19T12:03:13;95447.66;;;20.84;nan
6224;BME280;3145;42.726;23.342;2023-02-19T12:05:49;95417.41;;;20.49;nan
6224;BME280;3145;42.726;23.342;2023-02-19T12:08:45;95431.88;;;20.88;nan
6224;BME280;3145;42.726;23.342;2023-02-19T12:11:29;95385.31;;;20.82;nan
6224;BME280;3145;42.726;23.342;2023-02-19T12:14:23;95421.47;;;21.19;nan
6224;BME280;3145;42.726;23.342;2023-02-19T12:17:02;95289.16;;;20.40;nan
6224;BME280;3145;42.726;23.342;2023-02-19T12:19:43;95402.81;;;20.85;nan
6224;BME280;3145;42.726;23.342;2023-02-19T12:22:26;95384.97;;;20.79;nan
6224;BME280;3145;42.726;23.342;2023-02-19T12:25:14;95406.16;;;21.03;nan
6224;BME280;3145;42.726;23.342;2023-02-19T12:27:53;95380.97;;;21.09;nan
6224;BME280;3145;42.726;23.342;2023-02-19T12:30:33;95342.03;;;20.95;nan
6224;BME280;3145;42.726;23.342;2023-02-19T12:33:42;95389.28;;;21.08;nan
6224;BME280;3145;42.726;23.342;2023-02-19T12:36:21;95379.44;;;20.97;nan
6224;BME280;3145;42.726;23.342;2023-02-19T12:38:58;95374.16;;;21.18;nan
6224;BME280;3145;42.726;23.342;2023-02-19T12:41:34;95368.03;;;21.23;nan
6224;BME280;3145;42.726;23.342;2023-02-19T12:44:07;95360.97;;;21.17;nan
6224;BME280;3145;42.726;23.342;2023-02-19T12:46:37;95349.97;;;21.18;nan
6224;BME280;3145;42.726;23.342;2023-02-19T12:49:09;95351.75;;;21.13;nan
6224;BME280;3145;42.726;23.342;2023-02-19T12:51:42;95338.72;;;21.05;nan
6224;BME280;3145;42.726;23.342;2023-02-19T12:54:15;95339.91;;;20.97;nan
6224;BME280;3145;42.726;23.342;2023-02-19T12:56:47;95114.31;;;19.59;nan
6224;BME280;3145;42.726;23.342;2023-02-19T12:59:19;95274.66;;;20.69;nan
6224;BME280;3145;42.726;23.342;2023-02-19T13:01:50;95321.09;;;20.97;nan
6224;BME280;3145;42.726;23.342;2023-02-19T13:04:24;95309.31;;;20.98;nan
6224;BME280;3145;42.726;23.342;2023-02-19T13:06:59;95315.41;;;20.94;nan
6224;BME280;3145;42.726;23.342;2023-02-19T13:09:32;95313.25;;;20.79;nan
6224;BME280;3145;42.726;23.342;2023-02-19T13:12:03;95304.06;;;20.75;nan
6224;BME280;3145;42.726;23.342;2023-02-19T13:14:33;95273.72;;;20.47;nan
6224;BME280;3145;42.726;23.342;2023-02-19T13:17:07;95271.13;;;20.52;nan
6224;BME280;3145;42.726;23.342;2023-02-19T13:19:43;95296.91;;;20.81;nan
6224;BME280;3145;42.726;23.342;2023-02-19T13:22:18;95294.09;;;20.76;nan
6224;BME280;3145;42.726;23.342;2023-02-19T13:25:06;95278.50;;;20.73;nan
6224;BME280;3145;42.726;23.342;2023-02-19T13:28:06;95276.03;;;20.71;nan
6224;BME280;3145;42.726;23.342;2023-02-19T13:30:47;95270.75;;;20.76;nan
6224;BME280;3145;42.726;23.342;2023-02-19T13:33:36;95270.84;;;20.65;nan
6224;BME280;3145;42.726;23.342;2023-02-19T13:36:14;95258.16;;;20.77;nan
6224;BME280;3145;42.726;23.342;2023-02-19T13:38:45;95252.94;;;20.70;nan
6224;BME280;3145;42.726;23.342;2023-02-19T13:41:18;95239.75;;;20.69;nan
6224;BME280;3145;42.726;23.342;2023-02-19T13:43:53;95261.81;;;20.87;nan
6224;BME280;3145;42.726;23.342;2023-02-19T13:46:20;95259.59;;;20.84;nan
6224;BME280;3145;42.726;23.342;2023-02-19T13:48:47;95256.75;;;20.74;nan
6224;BME280;3145;42.726;23.342;2023-02-19T13:51:46;95249.00;;;20.61;nan
6224;BME280;3145;42.726;23.342;2023-02-19T13:54:27;95252.22;;;20.30;nan
6224;BME280;3145;42.726;23.342;2023-02-19T13:57:24;95248.75;;;20.18;nan
6224;BME280;3145;42.726;23.342;2023-02-19T13:59:52;95244.59;;;20.11;nan
6224;BME280;3145;42.726;23.342;2023-02-19T14:02:29;95248.56;;;20.08;nan
6224;BME280;3145;42.726;23.342;2023-02-19T14:04:58;95243.47;;;19.95;nan